AirNav   Everest Fuels
 
 1486 users online  

WY00 Red Reflet Ranch Airport
Ten Sleep, Wyoming, USA

GOING TO TEN SLEEP?


FAA INFORMATION EFFECTIVE 10 OCTOBER 2019

Location

FAA Identifier: WY00
Lat/Long: 43-58-03.7361N 107-22-46.1391W
43-58.062268N 107-22.768985W
43.9677045,-107.3794831
(estimated)
Elevation: 4732.4 ft. / 1442 m (estimated)
Variation: 11E (2010)
From city: 5 miles S of TEN SLEEP, WY
Time zone: UTC -6 (UTC -7 during Standard Time)
Zip code: 82442

Airport Operations

Airport use: Private use. Permission required prior to landing
Activation date: 02/2005
Control tower: no
ARTCC: SALT LAKE CITY CENTER
FSS: CASPER FLIGHT SERVICE STATION
NOTAMs facility: FDC (NOTAM-D service not available)
Attendance: UNATNDD
Wind indicator: yes
Segmented circle: no
Lights: ACTVT VASI RY 10 - 122.9.

Nearby radio navigation aids

VOR radial/distance  VOR name  Freq  Var
RLYr077/24.7WORLAND VOR/DME114.8013E

Airport Services

Runway Information

Runway 10/28

Dimensions: 5000 x 75 ft. / 1524 x 23 m
Surface: asphalt
RUNWAY 10  RUNWAY 28
Latitude: 43-58.224948N43-57.899587N
Longitude: 107-23.292342W107-22.245627W
Elevation: 4575.9 ft.4732.4 ft.
Traffic pattern: leftleft
Visual slope indicator: pulsating/steady burning VASI on right (3.00 degrees glide path)
Touchdown point: yes, no lightsyes, no lights

Airport Ownership and Management from official FAA records

Ownership: Privately-owned
Owner: ROBERT B. KAPLAN
10 LODGE ROAD
TEN SLEEP, WY 82442
Phone (307) 366-2340
Manager: LAURENCE KAPLAN
595 STATE HWY 434
TEN SLEEP, WY 82442
Phone (307) 366-2340

Airport Operational Statistics

Aircraft based on the field: 5
Single engine airplanes: 2
Jet airplanes: 2
Helicopters: 1
    

Additional Remarks

LAND RY 10 & DEPART RY 28 DUE TO HIGH TERRAIN ALL QUADRANTS & RY SLOPE.
NO PHONE AT ARPT
NO USE WO PRIOR PERMISSON.
FOR CD CTC SALT LAKE ARTCC AT 801-320-2568.

Instrument Procedures

There are no published instrument procedures at WY00.

Some nearby airports with instrument procedures:

KWRL - Worland Municipal Airport (25 nm W)
KBYG - Johnson County Airport (38 nm NE)
KGEY - South Big Horn County Airport (45 nm NW)
KHSG - Hot Springs County Airport (46 nm W)
KSHR - Sheridan County Airport (51 nm N)
 
Loc | Ops | Rwys | IFR | FBO | Links
Com | Nav | Svcs | Stats | Notes
Area around WY00 (Red Reflet Ranch Airport)
 
Road maps at: MapQuest Bing Google
 
Aerial photo
WARNING: Photo may not be current or correct
Aerial photo of WY00 (Red Reflet Ranch Airport)
Photo taken 14-May-2010

Do you have a better or more recent aerial photo of Red Reflet Ranch Airport that you would like to share? If so, please send us your photo.

 
Sectional chart

 
Airport distance calculator
Flying to Red Reflet Ranch Airport? Find the distance to fly.

From to WY00

Sunrise and sunset
Times for 16-Oct-2019
 Local
(UTC-6)
 Zulu
(UTC)
Morning civil twilight06:5712:57
Sunrise07:2613:26
Sunset18:2400:24
Evening civil twilight18:5300:53

Current date and time
Zulu (UTC)  16-Oct-2019 20:01:22
Local (UTC-6)  16-Oct-2019 14:01:22
 
METAR
KWRL 
25nm W 
161953Z AUTO VRB03KT 10SM CLR 18/00 A3001 RMK AO2 SLP153 T01830000
KBYG 
38nm NE 
161953Z AUTO 10SM CLR 22/M04 A3000 RMK AO2 SLP130 T02171039
KGEY 
45nm NW 
161953Z AUTO 14005KT 10SM CLR 16/02 A3000 RMK AO2 SLP155 T01610017
KHSG 
46nm W 
161935Z AUTO 03003KT 10SM CLR 17/00 A3003 RMK AO2 T01660001
TAF
KWRL 
25nm W 
161721Z 1618/1718 VRB06KT P6SM SKC FM170300 16007KT P6SM SKC
NOTAMs
Click for the latest NOTAMs
NOTAMs are issued by the DoD/FAA and will open in a separate window not controlled by AirNav.

 

 
 

Would you like to see your business listed on this page?

 If your business provides an interesting product or service to pilots, flight crews, aircraft, or users of the Red Reflet Ranch Airport, you should consider listing it here.  To start the listing process, click on the button below
 
Add a business
 

Other Pages about Red Reflet Ranch Airport

Update a link
 
Copyright © AirNav, LLC. All rights reserved. Privacy Policy  Contact